Time;durP1;ratioP1;P1;durP2;ratioP2;P2;SDS_P1;SDS_P2;PMS_P1;PMS_P2;Temp;Humidity;BMP_temperature;BMP_pressure;BME280_temperature;BME280_humidity;BME280_pressure;Samples;Min_cycle;Max_cycle;Signal;HPM_P1;HPM_P2
2023/08/11 00:02:22;;;;;;;46.92;42.92;;;17.10;93.50;;;;;;4971113;28;20061;-59
2023/08/11 00:04:49;;;;;;;47.83;43.42;;;17.10;99.90;;;;;;4971082;28;20050;-57
2023/08/11 00:07:15;;;;;;;48.13;43.72;;;17.20;99.90;;;;;;4970606;28;20149;-58
2023/08/11 00:09:41;;;;;;;48.45;44.15;;;17.30;99.90;;;;;;4970977;28;20121;-58
2023/08/11 00:12:07;;;;;;;48.65;44.38;;;17.30;99.90;;;;;;4971429;28;20098;-58
2023/08/11 00:14:32;;;;;;;50.50;46.10;;;17.20;99.90;;;;;;4970851;28;20382;-57
2023/08/11 00:16:58;;;;;;;47.78;43.88;;;17.30;99.90;;;;;;4969498;28;20050;-58
2023/08/11 00:19:24;;;;;;;45.45;41.58;;;17.20;1.00;;;;;;4968866;28;20416;-58
2023/08/11 00:21:49;;;;;;;48.17;44.15;;;17.00;1.00;;;;;;4970481;28;20051;-57
2023/08/11 00:24:16;;;;;;;45.05;41.13;;;16.90;30.60;;;;;;4960615;28;20512;-58
2023/08/11 00:26:41;;;;;;;47.35;43.45;;;17.00;99.90;;;;;;4957176;28;20039;-57
2023/08/11 00:29:07;;;;;;;46.75;42.90;;;16.90;99.90;;;;;;4969956;28;20049;-58
2023/08/11 00:31:32;;;;;;;46.83;42.85;;;16.80;99.90;;;;;;4971628;28;20038;-57
2023/08/11 00:33:58;;;;;;;48.22;44.03;;;16.80;1.00;;;;;;4970931;28;20066;-57
2023/08/11 00:36:24;;;;;;;48.55;44.38;;;16.80;80.50;;;;;;4967482;28;20052;-58
2023/08/11 00:38:49;;;;;;;46.95;43.03;;;16.90;99.90;;;;;;4970603;28;20054;-58
2023/08/11 00:41:16;;;;;;;49.38;44.83;;;16.90;99.90;;;;;;4971029;28;20489;-58
2023/08/11 00:43:42;;;;;;;50.13;45.85;;;16.90;99.90;;;;;;4971075;28;20035;-57
2023/08/11 00:46:10;;;;;;;47.40;43.40;;;17.00;99.90;;;;;;4970084;28;20043;-57
2023/08/11 00:48:38;;;;;;;48.28;44.17;;;17.10;1.00;;;;;;4971431;28;20710;-59
2023/08/11 00:51:05;;;;;;;47.70;43.60;;;17.00;1.00;;;;;;4970499;28;20031;-59
2023/08/11 00:53:32;;;;;;;48.45;44.17;;;17.00;1.00;;;;;;4974140;28;20070;-59
2023/08/11 00:55:58;;;;;;;47.47;43.13;;;17.10;1.00;;;;;;4972809;28;20038;-59
2023/08/11 00:58:24;;;;;;;47.22;43.13;;;17.10;1.00;;;;;;4967557;28;20141;-59
2023/08/11 01:00:51;;;;;;;50.13;45.50;;;16.90;1.00;;;;;;4974033;28;20039;-59
2023/08/11 01:03:18;;;;;;;48.95;44.53;;;17.00;1.00;;;;;;4974085;28;20039;-59
2023/08/11 01:05:52;;;;;;;48.95;44.78;;;16.80;1.00;;;;;;4974124;28;20037;-59
2023/08/11 01:08:38;;;;;;;49.80;45.25;;;16.90;1.00;;;;;;4974212;28;20045;-59
2023/08/11 01:11:28;;;;;;;48.67;44.35;;;16.80;1.00;;;;;;4974238;28;20556;-59
2023/08/11 01:14:02;;;;;;;48.22;44.13;;;16.80;7.50;;;;;;4974224;28;20512;-59
2023/08/11 01:16:31;;;;;;;51.08;46.47;;;16.70;64.70;;;;;;4972914;28;20046;-59
2023/08/11 01:18:57;;;;;;;50.35;45.92;;;16.70;90.20;;;;;;4973563;28;20365;-59
2023/08/11 01:21:25;;;;;;;51.42;46.72;;;16.80;99.90;;;;;;4972745;28;20043;-59
2023/08/11 01:23:51;;;;;;;51.17;46.70;;;16.80;99.90;;;;;;4974001;28;20043;-59
2023/08/11 01:26:17;;;;;;;50.65;46.42;;;16.80;99.90;;;;;;4969750;28;20035;-59
2023/08/11 01:28:43;;;;;;;52.35;47.85;;;16.90;99.90;;;;;;4960928;28;20090;-59
2023/08/11 01:31:10;;;;;;;49.97;45.40;;;16.90;99.90;;;;;;4973016;28;20078;-60
2023/08/11 01:33:37;;;;;;;51.88;47.35;;;16.80;99.90;;;;;;4955010;29;20047;-59
2023/08/11 01:36:03;;;;;;;52.80;47.92;;;16.80;99.90;;;;;;4960040;28;20047;-59
2023/08/11 01:38:29;;;;;;;50.25;45.75;;;16.80;99.90;;;;;;4974053;28;20067;-59
2023/08/11 01:40:54;;;;;;;50.33;45.95;;;16.90;1.00;;;;;;4973206;28;20424;-59
2023/08/11 01:43:21;;;;;;;50.00;45.70;;;17.00;1.00;;;;;;4973565;28;20137;-59
2023/08/11 01:45:48;;;;;;;50.28;45.78;;;17.00;1.00;;;;;;4973835;28;20408;-59
2023/08/11 01:48:16;;;;;;;49.85;45.55;;;17.00;1.00;;;;;;4972906;28;20046;-59
2023/08/11 01:50:42;;;;;;;52.83;48.00;;;17.20;1.00;;;;;;4965134;28;20134;-59
2023/08/11 01:53:08;;;;;;;51.35;46.80;;;16.90;37.00;;;;;;4973527;28;20129;-59
2023/08/11 01:55:33;;;;;;;50.78;46.38;;;17.00;78.30;;;;;;4973501;28;20478;-59
2023/08/11 01:57:59;;;;;;;52.47;47.70;;;16.80;99.90;;;;;;4973503;28;20047;-59
2023/08/11 02:00:25;;;;;;;53.42;48.45;;;16.80;99.90;;;;;;4973137;28;20086;-58
2023/08/11 02:02:52;;;;;;;54.45;49.38;;;16.90;99.90;;;;;;4958685;28;20556;-57
2023/08/11 02:05:17;;;;;;;53.40;48.45;;;17.00;1.00;;;;;;4971538;28;20428;-59
2023/08/11 02:07:44;;;;;;;53.03;48.17;;;17.00;1.00;;;;;;4969619;28;20050;-58
2023/08/11 02:10:11;;;;;;;55.08;50.20;;;17.10;1.00;;;;;;4973256;28;20043;-58
2023/08/11 02:12:38;;;;;;;54.47;49.72;;;17.10;99.90;;;;;;4973035;28;20046;-58
2023/08/11 02:15:05;;;;;;;56.67;51.60;;;16.90;99.90;;;;;;4973701;28;20125;-57
2023/08/11 02:17:31;;;;;;;53.90;49.13;;;17.00;99.90;;;;;;4973123;28;20555;-57
2023/08/11 02:19:58;;;;;;;56.35;51.30;;;16.90;1.00;;;;;;4972955;28;20056;-57
2023/08/11 02:22:24;;;;;;;54.50;49.50;;;17.00;1.00;;;;;;4971202;28;20046;-58
2023/08/11 02:24:50;;;;;;;54.92;50.10;;;17.10;18.10;;;;;;4966597;28;20039;-58
2023/08/11 02:27:15;;;;;;;56.58;51.30;;;16.80;99.90;;;;;;4972803;28;20519;-58
2023/08/11 02:29:41;;;;;;;57.00;51.53;;;17.10;99.90;;;;;;4972892;28;20050;-57
2023/08/11 02:32:07;;;;;;;56.65;51.50;;;17.10;99.90;;;;;;4972624;28;20039;-57
2023/08/11 02:34:34;;;;;;;55.53;50.53;;;17.20;1.00;;;;;;4972877;28;20119;-59
2023/08/11 02:37:00;;;;;;;54.45;49.65;;;17.10;1.00;;;;;;4972626;28;20206;-58
2023/08/11 02:39:26;;;;;;;53.70;49.00;;;17.10;1.00;;;;;;4972404;28;20054;-58
2023/08/11 02:41:52;;;;;;;57.63;52.40;;;17.00;1.00;;;;;;4970461;28;20043;-58
2023/08/11 02:44:17;;;;;;;57.10;51.75;;;16.90;1.00;;;;;;4972869;28;20162;-56
2023/08/11 02:46:43;;;;;;;54.97;50.10;;;16.80;1.00;;;;;;4972607;28;20093;-57
2023/08/11 02:49:09;;;;;;;56.80;51.80;;;16.90;51.30;;;;;;4972769;28;20042;-57
2023/08/11 02:51:34;;;;;;;58.45;53.35;;;17.00;93.70;;;;;;4971908;28;20034;-58
2023/08/11 02:54:00;;;;;;;56.55;51.33;;;16.70;99.90;;;;;;4975228;28;20126;-57
2023/08/11 02:56:26;;;;;;;55.05;50.05;;;16.70;99.90;;;;;;4971102;28;20039;-58
2023/08/11 02:58:56;;;;;;;57.33;52.22;;;16.80;99.90;;;;;;4972883;28;20505;-57
2023/08/11 03:01:22;;;;;;;54.90;49.92;;;16.80;99.90;;;;;;4971662;28;20043;-57
2023/08/11 03:03:48;;;;;;;54.90;50.10;;;16.80;1.00;;;;;;4967992;28;20035;-57
2023/08/11 03:06:14;;;;;;;56.70;51.53;;;16.80;1.00;;;;;;4972205;28;20082;-57
2023/08/11 03:08:39;;;;;;;55.95;50.90;;;16.50;1.00;;;;;;4972648;28;20034;-59
2023/08/11 03:11:05;;;;;;;54.75;49.85;;;16.70;1.00;;;;;;4972054;28;20047;-59
2023/08/11 03:13:31;;;;;;;56.85;51.92;;;16.50;82.70;;;;;;4971154;28;20070;-60
2023/08/11 03:15:58;;;;;;;56.65;51.67;;;16.70;99.90;;;;;;4971526;28;20046;-59
2023/08/11 03:18:24;;;;;;;57.53;52.45;;;16.50;99.90;;;;;;4972498;28;20043;-59
2023/08/11 03:20:50;;;;;;;57.47;52.35;;;16.50;99.90;;;;;;4967695;28;20120;-59
2023/08/11 03:23:16;;;;;;;55.67;50.88;;;16.50;99.90;;;;;;4967822;28;20045;-59
2023/08/11 03:25:41;;;;;;;56.05;51.30;;;16.60;99.90;;;;;;4972049;28;20404;-59
2023/08/11 03:28:07;;;;;;;57.38;52.10;;;16.80;99.90;;;;;;4971930;28;20397;-59
2023/08/11 03:30:33;;;;;;;55.90;50.80;;;16.50;99.90;;;;;;4971248;28;20039;-59
2023/08/11 03:32:58;;;;;;;57.38;52.10;;;16.50;1.00;;;;;;4970663;28;20081;-59
2023/08/11 03:35:24;;;;;;;56.22;51.33;;;16.50;1.00;;;;;;4971971;28;20756;-58
2023/08/11 03:37:49;;;;;;;55.33;50.58;;;16.50;1.00;;;;;;4971755;28;20505;-59
2023/08/11 03:40:16;;;;;;;56.65;51.65;;;16.80;1.00;;;;;;4971693;28;20038;-59
2023/08/11 03:42:43;;;;;;;57.15;52.22;;;16.80;1.00;;;;;;4971374;28;20053;-59
2023/08/11 03:45:12;;;;;;;57.83;52.53;;;16.60;32.90;;;;;;4971780;28;20393;-59
2023/08/11 03:47:40;;;;;;;59.17;53.72;;;17.00;96.60;;;;;;4971148;28;20038;-59
2023/08/11 03:50:06;;;;;;;57.95;52.42;;;16.70;99.90;;;;;;4971280;28;20509;-59
2023/08/11 03:52:36;;;;;;;56.08;51.08;;;16.70;99.90;;;;;;4969432;28;20046;-59
2023/08/11 03:55:02;;;;;;;56.72;51.90;;;16.80;99.90;;;;;;4970945;28;20043;-59
2023/08/11 03:57:28;;;;;;;56.83;51.60;;;16.80;99.90;;;;;;4971195;28;20078;-59
2023/08/11 03:59:53;;;;;;;57.03;52.03;;;16.70;99.90;;;;;;4970856;28;20147;-59
2023/08/11 04:02:19;;;;;;;55.38;50.38;;;16.90;99.90;;;;;;4970415;28;20043;-59
2023/08/11 04:04:45;;;;;;;55.55;50.55;;;16.60;99.90;;;;;;4971610;28;20511;-59
2023/08/11 04:07:11;;;;;;;54.80;49.70;;;16.50;99.90;;;;;;4963475;28;20031;-59
2023/08/11 04:09:41;;;;;;;56.60;50.92;;;16.60;99.90;;;;;;4969666;28;20101;-58
2023/08/11 04:12:07;;;;;;;56.75;51.65;;;16.50;99.90;;;;;;4967106;28;20137;-60
2023/08/11 04:14:32;;;;;;;56.08;51.17;;;16.80;99.90;;;;;;4971375;28;20121;-59
2023/08/11 04:16:58;;;;;;;55.60;50.60;;;16.50;99.90;;;;;;4971450;28;20496;-59
2023/08/11 04:19:24;;;;;;;56.40;50.97;;;16.60;99.90;;;;;;4971425;28;20046;-58
2023/08/11 04:21:50;;;;;;;58.13;52.78;;;16.60;99.90;;;;;;4969593;28;20070;-58
2023/08/11 04:24:17;;;;;;;57.08;52.08;;;16.70;99.90;;;;;;4956278;28;20090;-58
2023/08/11 04:26:43;;;;;;;55.97;50.95;;;16.50;99.90;;;;;;4970245;28;20038;-59
2023/08/11 04:29:09;;;;;;;55.65;50.58;;;16.70;99.90;;;;;;4971228;28;20501;-58
2023/08/11 04:31:34;;;;;;;54.75;50.00;;;16.80;99.90;;;;;;4970735;28;20094;-59
2023/08/11 04:34:00;;;;;;;56.58;51.63;;;16.50;99.90;;;;;;4971442;28;20047;-58
2023/08/11 04:36:26;;;;;;;56.80;51.72;;;16.70;99.90;;;;;;4971129;28;20093;-58
2023/08/11 04:38:52;;;;;;;55.65;50.60;;;16.60;99.90;;;;;;4962867;28;20086;-58
2023/08/11 04:41:17;;;;;;;57.00;51.83;;;16.60;99.90;;;;;;4958184;28;20119;-58
2023/08/11 04:43:43;;;;;;;56.67;51.72;;;16.80;99.90;;;;;;4970563;28;20070;-59
2023/08/11 04:46:09;;;;;;;55.85;51.08;;;16.60;99.90;;;;;;4971401;28;20031;-58
2023/08/11 04:48:34;;;;;;;55.75;50.92;;;16.60;99.90;;;;;;4971363;28;20131;-59
2023/08/11 04:51:00;;;;;;;56.47;51.50;;;16.60;99.90;;;;;;4970524;28;20061;-58
2023/08/11 04:53:25;;;;;;;55.97;51.08;;;16.80;99.90;;;;;;4965658;28;20142;-58
2023/08/11 04:55:51;;;;;;;55.22;50.20;;;16.70;99.90;;;;;;4951751;29;20051;-58
2023/08/11 04:58:18;;;;;;;57.05;51.22;;;17.10;99.90;;;;;;4951807;29;20043;-58
2023/08/11 05:00:43;;;;;;;55.25;50.25;;;16.70;99.90;;;;;;4956706;28;20026;-59
2023/08/11 05:03:09;;;;;;;55.35;50.55;;;17.00;99.90;;;;;;4967009;28;20093;-58
2023/08/11 05:05:35;;;;;;;56.30;51.40;;;16.80;99.90;;;;;;4970547;28;20070;-59
2023/08/11 05:08:00;;;;;;;55.80;50.75;;;17.30;99.90;;;;;;4970268;28;20046;-59
2023/08/11 05:10:26;;;;;;;55.03;50.13;;;16.90;99.90;;;;;;4970061;28;20039;-58
2023/08/11 05:12:52;;;;;;;54.67;49.72;;;16.90;99.90;;;;;;4969604;28;20065;-59
2023/08/11 05:15:17;;;;;;;54.83;49.97;;;17.20;99.90;;;;;;4964066;28;20051;-58
2023/08/11 05:17:43;;;;;;;56.50;51.50;;;17.10;99.90;;;;;;4965739;28;20047;-58
2023/08/11 05:20:10;;;;;;;54.72;49.72;;;17.40;99.90;;;;;;4970855;28;20039;-58
2023/08/11 05:22:36;;;;;;;54.90;50.00;;;17.60;99.90;;;;;;4963987;28;20405;-58
2023/08/11 05:25:04;;;;;;;52.42;47.78;;;17.20;99.90;;;;;;4969044;28;20062;-59
2023/08/11 05:27:30;;;;;;;54.38;49.67;;;17.70;99.90;;;;;;4962570;28;20035;-59
2023/08/11 05:29:56;;;;;;;54.88;49.60;;;17.60;99.90;;;;;;4967877;28;20057;-59
2023/08/11 05:32:23;;;;;;;53.55;48.78;;;17.50;99.90;;;;;;4967702;28;20128;-60
2023/08/11 05:34:49;;;;;;;53.22;48.58;;;17.90;99.90;;;;;;4968410;28;21779;-59
2023/08/11 05:37:15;;;;;;;51.10;46.67;;;17.90;99.90;;;;;;4966267;28;20521;-59
2023/08/11 05:39:42;;;;;;;52.88;48.28;;;17.50;99.90;;;;;;4973730;28;20046;-60
2023/08/11 05:42:08;;;;;;;54.13;49.22;;;17.80;99.90;;;;;;4971521;28;20035;-59
2023/08/11 05:44:34;;;;;;;52.78;48.08;;;17.60;99.90;;;;;;4972495;28;20038;-59
2023/08/11 05:47:00;;;;;;;53.33;48.50;;;18.20;99.90;;;;;;4970078;28;20027;-59
2023/08/11 05:49:25;;;;;;;51.08;46.65;;;17.80;99.90;;;;;;4974006;28;20504;-59
2023/08/11 05:51:51;;;;;;;51.03;46.30;;;18.40;99.90;;;;;;4972879;28;20113;-59
2023/08/11 05:54:16;;;;;;;49.83;45.53;;;18.00;99.90;;;;;;4973428;28;20046;-60
2023/08/11 05:56:42;;;;;;;50.92;46.10;;;18.50;99.90;;;;;;4987669;28;20118;-59
2023/08/11 05:59:08;;;;;;;49.05;44.63;;;18.20;99.90;;;;;;4961365;28;20039;-60
2023/08/11 06:01:34;;;;;;;49.45;44.65;;;18.50;99.90;;;;;;4967820;28;20050;-59
2023/08/11 06:04:00;;;;;;;49.85;45.22;;;18.70;99.90;;;;;;4971580;28;20101;-60
2023/08/11 06:06:26;;;;;;;50.38;45.78;;;18.80;99.90;;;;;;4966404;28;20070;-59
2023/08/11 06:08:54;;;;;;;50.35;45.70;;;18.40;99.90;;;;;;4963081;28;20113;-59
2023/08/11 06:11:20;;;;;;;49.45;44.92;;;18.60;99.90;;;;;;4968321;28;20034;-60
2023/08/11 06:13:46;;;;;;;50.25;45.75;;;18.90;99.90;;;;;;4969761;28;20113;-59
2023/08/11 06:16:11;;;;;;;49.15;44.72;;;18.70;99.90;;;;;;4958456;28;20138;-59
2023/08/11 06:18:37;;;;;;;48.88;44.40;;;18.80;99.90;;;;;;4965485;28;20031;-60
2023/08/11 06:21:04;;;;;;;50.53;45.85;;;18.90;99.90;;;;;;4963001;28;20047;-59
2023/08/11 06:23:30;;;;;;;49.67;45.08;;;19.30;99.90;;;;;;4967579;28;20058;-60
2023/08/11 06:25:56;;;;;;;48.55;44.15;;;19.00;99.90;;;;;;4966766;28;20054;-59
2023/08/11 06:28:21;;;;;;;46.42;42.33;;;19.40;99.90;;;;;;4962157;28;20117;-60
2023/08/11 06:30:47;;;;;;;48.35;43.67;;;19.30;99.90;;;;;;4963583;28;20192;-60
2023/08/11 06:33:12;;;;;;;47.90;43.50;;;19.60;99.90;;;;;;4963117;28;20102;-60
2023/08/11 06:35:38;;;;;;;47.00;42.80;;;19.40;99.90;;;;;;4963822;28;20043;-60
2023/08/11 06:38:04;;;;;;;47.53;42.97;;;19.80;99.90;;;;;;4963372;28;21614;-60
2023/08/11 06:40:29;;;;;;;47.33;43.10;;;19.60;99.90;;;;;;4965122;28;20620;-58
2023/08/11 06:42:55;;;;;;;49.85;45.22;;;19.70;99.90;;;;;;4966575;28;20054;-58
2023/08/11 06:45:21;;;;;;;48.67;44.15;;;20.10;99.90;;;;;;4962868;28;20490;-57
2023/08/11 06:47:46;;;;;;;45.92;41.85;;;20.00;99.90;;;;;;4970903;28;20039;-58
2023/08/11 06:50:12;;;;;;;45.20;41.25;;;20.10;99.90;;;;;;4965447;28;20035;-58
2023/08/11 06:52:37;;;;;;;46.15;41.58;;;20.30;99.90;;;;;;4966912;28;20081;-62
2023/08/11 06:55:04;;;;;;;46.22;41.97;;;20.50;99.90;;;;;;4963897;28;20751;-62
2023/08/11 06:57:29;;;;;;;44.08;40.05;;;20.60;99.90;;;;;;4964288;28;20047;-58
2023/08/11 06:59:56;;;;;;;42.30;38.70;;;20.70;99.90;;;;;;4966436;28;20039;-59
2023/08/11 07:02:21;;;;;;;40.95;37.45;;;20.60;99.90;;;;;;4967312;28;20145;-57
2023/08/11 07:04:47;;;;;;;41.75;38.05;;;20.70;99.90;;;;;;4959381;28;20409;-58
2023/08/11 07:07:12;;;;;;;39.83;36.22;;;20.80;99.90;;;;;;4957760;28;20027;-58
2023/08/11 07:09:38;;;;;;;41.42;37.50;;;21.20;99.90;;;;;;4956143;28;20071;-58
2023/08/11 07:12:04;;;;;;;39.33;35.88;;;21.20;1.00;;;;;;4962554;28;20039;-59
2023/08/11 07:14:30;;;;;;;39.10;35.28;;;21.30;99.90;;;;;;4959130;28;20047;-59
2023/08/11 07:16:55;;;;;;;32.58;29.80;;;21.40;1.00;;;;;;4965422;28;20039;-58
2023/08/11 07:19:21;;;;;;;35.35;32.45;;;21.60;37.40;;;;;;4961168;28;20115;-58
2023/08/11 07:21:46;;;;;;;33.55;30.55;;;22.10;99.90;;;;;;4964180;28;20126;-58
2023/08/11 07:24:12;;;;;;;33.38;30.42;;;22.20;99.90;;;;;;4971224;28;20043;-61
2023/08/11 07:26:38;;;;;;;31.67;28.58;;;22.50;65.70;;;;;;4965777;28;20054;-57
2023/08/11 07:29:03;;;;;;;29.13;26.58;;;22.90;1.00;;;;;;4966750;28;20121;-60
2023/08/11 07:31:29;;;;;;;28.70;26.30;;;23.10;1.00;;;;;;4965414;28;20054;-59
2023/08/11 07:33:55;;;;;;;27.73;25.00;;;23.50;99.90;;;;;;4963462;28;20050;-58
2023/08/11 07:36:20;;;;;;;25.80;23.50;;;23.70;99.90;;;;;;4965689;28;20043;-58
2023/08/11 07:38:46;;;;;;;27.95;25.20;;;24.00;1.00;;;;;;4970016;28;20045;-58
2023/08/11 07:41:12;;;;;;;27.83;25.48;;;24.10;99.90;;;;;;4962967;28;20046;-58
2023/08/11 07:43:38;;;;;;;27.80;25.23;;;24.00;99.90;;;;;;4963041;28;20049;-58
2023/08/11 07:46:03;;;;;;;28.63;25.85;;;24.40;73.30;;;;;;4964514;28;20038;-58
2023/08/11 07:48:29;;;;;;;29.35;26.75;;;24.50;1.00;;;;;;4968098;28;20487;-59
2023/08/11 07:50:55;;;;;;;26.48;23.73;;;25.00;1.00;;;;;;4965520;28;20047;-60
2023/08/11 07:53:20;;;;;;;28.55;25.52;;;24.70;99.90;;;;;;4955323;28;20034;-61
2023/08/11 07:55:46;;;;;;;29.83;26.98;;;24.70;99.90;;;;;;4962534;28;20162;-61
2023/08/11 07:58:11;;;;;;;30.45;27.65;;;24.60;99.90;;;;;;4962444;28;20061;-59
2023/08/11 08:00:37;;;;;;;30.50;27.48;;;24.30;75.80;;;;;;4966240;28;20129;-61
2023/08/11 08:03:04;;;;;;;29.63;26.63;;;24.20;54.90;;;;;;4967586;28;20102;-60
2023/08/11 08:05:30;;;;;;;28.05;25.45;;;24.40;49.30;;;;;;4957490;28;20047;-61
2023/08/11 08:07:55;;;;;;;28.75;25.90;;;24.70;39.10;;;;;;4963924;28;20112;-60
2023/08/11 08:10:21;;;;;;;27.67;25.15;;;25.00;17.50;;;;;;4966313;28;20039;-61
2023/08/11 08:12:47;;;;;;;28.55;23.90;;;25.10;9.80;;;;;;4959116;28;20415;-60
2023/08/11 08:15:14;;;;;;;24.27;21.65;;;25.20;1.00;;;;;;4963744;28;20047;-61
2023/08/11 08:17:40;;;;;;;25.55;23.17;;;25.40;1.00;;;;;;4958571;28;20031;-61
2023/08/11 08:20:13;;;;;;;24.13;21.80;;;25.60;1.00;;;;;;4954199;28;20054;-61
2023/08/11 08:22:39;;;;;;;23.67;21.45;;;25.80;1.00;;;;;;4962064;28;20077;-61
2023/08/11 08:25:06;;;;;;;22.48;20.33;;;25.90;1.00;;;;;;4980290;28;20053;-61
2023/08/11 08:27:37;;;;;;;22.70;20.40;;;25.90;99.90;;;;;;4963289;28;20039;-61
2023/08/11 08:30:04;;;;;;;30.40;20.00;;;26.00;99.90;;;;;;4964074;28;20039;-60
2023/08/11 08:32:30;;;;;;;22.30;20.30;;;26.10;99.90;;;;;;4961450;28;20035;-61
2023/08/11 08:34:56;;;;;;;18.98;17.08;;;26.10;99.90;;;;;;4964192;28;20086;-61
2023/08/11 08:37:24;;;;;;;21.25;19.20;;;26.20;99.90;;;;;;4956805;28;20059;-61
2023/08/11 08:39:53;;;;;;;19.25;17.23;;;26.10;99.90;;;;;;4965732;28;20528;-61
2023/08/11 08:42:19;;;;;;;17.75;16.00;;;26.00;99.90;;;;;;4967200;28;20035;-61
2023/08/11 08:44:47;;;;;;;18.55;16.80;;;25.80;99.90;;;;;;4962614;28;20059;-61
2023/08/11 08:47:13;;;;;;;21.23;16.27;;;25.80;99.90;;;;;;4962381;28;20142;-61
2023/08/11 08:49:41;;;;;;;17.25;15.13;;;25.80;99.90;;;;;;4963942;28;20070;-61
2023/08/11 08:52:07;;;;;;;17.88;14.98;;;25.90;99.90;;;;;;4960939;28;20051;-60
2023/08/11 08:54:33;;;;;;;15.40;12.40;;;26.10;99.90;;;;;;4963358;28;20054;-60
2023/08/11 08:57:01;;;;;;;13.55;11.30;;;26.40;99.90;;;;;;4965240;28;20341;-60
2023/08/11 08:59:27;;;;;;;13.77;12.15;;;26.70;99.90;;;;;;4961103;28;20527;-61
2023/08/11 09:01:53;;;;;;;13.35;12.00;;;26.90;99.90;;;;;;4969429;28;20110;-61
2023/08/11 09:04:21;;;;;;;18.08;16.38;;;27.00;99.90;;;;;;4968255;28;20047;-61
2023/08/11 09:06:47;;;;;;;17.63;15.25;;;27.00;99.90;;;;;;4954742;28;20035;-60
2023/08/11 09:09:13;;;;;;;14.73;10.82;;;27.00;99.90;;;;;;4960037;28;20413;-60
2023/08/11 09:11:39;;;;;;;12.98;8.95;;;27.10;99.90;;;;;;4968184;28;20034;-60
2023/08/11 09:14:07;;;;;;;13.20;8.95;;;27.40;99.90;;;;;;4966696;28;20323;-61
2023/08/11 09:16:41;;;;;;;11.38;7.80;;;27.60;99.90;;;;;;4963310;28;20125;-61
2023/08/11 09:19:11;;;;;;;12.30;7.67;;;27.70;99.90;;;;;;4965360;28;20564;-60
2023/08/11 09:21:37;;;;;;;13.20;8.73;;;27.60;99.90;;;;;;4963099;28;20298;-61
2023/08/11 09:24:03;;;;;;;10.80;8.20;;;27.30;99.90;;;;;;4967065;28;20043;-60
2023/08/11 09:26:29;;;;;;;13.40;8.25;;;27.10;99.90;;;;;;4960561;28;20074;-60
2023/08/11 09:28:55;;;;;;;10.52;8.45;;;27.30;99.90;;;;;;4966394;28;20085;-60
2023/08/11 09:31:24;;;;;;;13.32;8.35;;;27.50;99.90;;;;;;4963000;28;20043;-60
2023/08/11 09:33:51;;;;;;;13.07;8.63;;;27.60;99.90;;;;;;4967187;28;20090;-61
2023/08/11 09:36:18;;;;;;;12.18;7.90;;;27.50;99.90;;;;;;4962255;28;20034;-60
2023/08/11 09:38:48;;;;;;;12.40;7.85;;;27.10;99.90;;;;;;4964587;28;20042;-61
2023/08/11 09:41:14;;;;;;;12.45;8.63;;;27.20;99.90;;;;;;4957892;28;20404;-61
2023/08/11 09:43:47;;;;;;;11.75;7.95;;;27.00;99.90;;;;;;4958420;28;20053;-60
2023/08/11 09:46:12;;;;;;;11.57;7.60;;;27.00;99.90;;;;;;4956639;28;20133;-61
2023/08/11 09:48:38;;;;;;;11.43;8.13;;;26.70;99.90;;;;;;4955903;28;20149;-60
2023/08/11 09:51:10;;;;;;;17.30;9.07;;;27.00;99.90;;;;;;4961958;28;20043;-62
2023/08/11 09:53:40;;;;;;;11.68;8.18;;;26.70;99.90;;;;;;4969766;28;20062;-61
2023/08/11 09:56:07;;;;;;;12.00;8.13;;;27.00;99.90;;;;;;4966208;28;20070;-60
2023/08/11 09:58:37;;;;;;;10.50;8.00;;;27.40;99.90;;;;;;4965388;28;20453;-61
2023/08/11 10:01:04;;;;;;;14.85;8.43;;;27.60;99.90;;;;;;4968575;28;20047;-60
2023/08/11 10:03:36;;;;;;;12.80;8.48;;;27.50;99.90;;;;;;4970465;28;20050;-60
2023/08/11 10:06:03;;;;;;;10.43;8.55;;;27.40;99.90;;;;;;4962860;28;20043;-61
2023/08/11 10:08:30;;;;;;;11.93;8.50;;;27.20;99.90;;;;;;4969311;28;20105;-60
2023/08/11 10:10:57;;;;;;;12.23;8.45;;;26.90;99.90;;;;;;4967906;28;20101;-59
2023/08/11 10:13:25;;;;;;;15.82;9.30;;;26.70;99.90;;;;;;4965950;28;20042;-58
2023/08/11 10:15:52;;;;;;;12.18;8.50;;;26.60;99.90;;;;;;4970383;28;20042;-58
2023/08/11 10:18:18;;;;;;;15.05;8.73;;;26.50;99.90;;;;;;4964913;28;20065;-59
2023/08/11 10:20:46;;;;;;;10.60;8.55;;;26.50;99.90;;;;;;4966617;28;20520;-59
2023/08/11 10:23:13;;;;;;;13.32;8.48;;;26.50;99.90;;;;;;4964249;28;20123;-59
2023/08/11 10:25:39;;;;;;;12.30;8.90;;;26.50;99.90;;;;;;4961170;28;20074;-58
2023/08/11 10:28:07;;;;;;;16.80;9.80;;;25.60;99.90;;;;;;4963477;28;20057;-59
2023/08/11 10:30:33;;;;;;;15.90;9.27;;;26.50;99.90;;;;;;4963517;28;20080;-58
2023/08/11 10:33:06;;;;;;;14.70;9.63;;;26.50;99.90;;;;;;4966789;28;20038;-58
2023/08/11 10:35:34;;;;;;;13.27;9.38;;;26.50;99.90;;;;;;4964997;28;20517;-59
2023/08/11 10:38:00;;;;;;;16.13;9.32;;;26.50;99.90;;;;;;4964579;28;20051;-59
2023/08/11 10:40:39;;;;;;;12.52;9.30;;;26.70;99.90;;;;;;4965653;28;20294;-59
2023/08/11 10:43:04;;;;;;;15.38;10.02;;;26.80;99.90;;;;;;4961330;28;20051;-59
2023/08/11 10:45:36;;;;;;;12.52;8.95;;;27.00;99.90;;;;;;4962257;28;20031;-58
2023/08/11 10:48:11;;;;;;;13.65;9.52;;;27.20;99.90;;;;;;4966610;28;20101;-58
2023/08/11 10:50:38;;;;;;;13.00;9.63;;;27.10;99.90;;;;;;4966286;28;20030;-58
2023/08/11 10:53:21;;;;;;;13.68;9.77;;;26.90;99.90;;;;;;4962052;28;20039;-58
2023/08/11 10:55:58;;;;;;;14.73;9.68;;;26.80;99.90;;;;;;4963932;28;20402;-58
2023/08/11 10:58:24;;;;;;;14.23;9.45;;;26.90;99.90;;;;;;4967828;28;20043;-59
2023/08/11 11:00:50;;;;;;;12.93;9.60;;;27.00;99.90;;;;;;4965848;28;20134;-59
2023/08/11 11:03:17;;;;;;;13.40;10.48;;;27.30;99.90;;;;;;4967393;28;20114;-58
2023/08/11 11:05:43;;;;;;;15.48;9.82;;;27.30;99.90;;;;;;4963531;28;20042;-58
2023/08/11 11:08:09;;;;;;;14.48;9.93;;;27.50;99.90;;;;;;4951194;28;20125;-60
2023/08/11 11:10:34;;;;;;;15.40;9.90;;;27.60;99.90;;;;;;4966843;28;20564;-59
2023/08/11 11:13:00;;;;;;;14.80;11.48;;;27.60;99.90;;;;;;4958707;28;20046;-60
2023/08/11 11:15:32;;;;;;;17.13;10.77;;;27.80;99.90;;;;;;4958706;28;20066;-59
2023/08/11 11:17:58;;;;;;;14.27;10.77;;;27.60;99.90;;;;;;4964426;28;20124;-59
2023/08/11 11:20:25;;;;;;;12.85;10.25;;;27.60;99.90;;;;;;4964410;28;20130;-58
2023/08/11 11:22:51;;;;;;;13.40;10.52;;;27.70;99.90;;;;;;4961466;28;20035;-59
2023/08/11 11:25:17;;;;;;;16.52;10.20;;;27.70;99.90;;;;;;4965688;28;20053;-59
2023/08/11 11:27:44;;;;;;;14.98;10.73;;;27.70;99.90;;;;;;4966923;28;20039;-58
2023/08/11 11:30:10;;;;;;;14.95;11.25;;;27.70;99.90;;;;;;4966986;28;20050;-59
2023/08/11 11:32:37;;;;;;;16.80;10.77;;;27.70;99.90;;;;;;4964364;28;20039;-57
2023/08/11 11:35:04;;;;;;;14.98;10.20;;;27.70;99.90;;;;;;4965005;28;20031;-58
2023/08/11 11:37:32;;;;;;;19.27;10.75;;;27.70;99.90;;;;;;4964312;28;20137;-58
2023/08/11 11:39:58;;;;;;;14.75;10.27;;;27.70;99.90;;;;;;4954844;28;20050;-58
2023/08/11 11:42:29;;;;;;;14.70;9.15;;;27.90;99.90;;;;;;4956775;28;20112;-60
2023/08/11 11:44:55;;;;;;;12.38;9.43;;;27.90;99.90;;;;;;4965688;28;20051;-58
2023/08/11 11:47:21;;;;;;;13.13;9.57;;;28.00;99.90;;;;;;4964335;28;20035;-58
2023/08/11 11:49:57;;;;;;;11.65;8.90;;;28.00;99.90;;;;;;4960898;28;20047;-59
2023/08/11 11:52:26;;;;;;;15.05;9.65;;;28.00;99.90;;;;;;4959041;28;20077;-59
2023/08/11 11:54:55;;;;;;;13.43;9.77;;;27.90;99.90;;;;;;4954705;28;20421;-59
2023/08/11 11:57:21;;;;;;;28.00;9.32;;;27.90;99.90;;;;;;4965018;28;20122;-59
2023/08/11 11:59:47;;;;;;;14.93;9.85;;;27.90;99.90;;;;;;4963262;28;20050;-58
2023/08/11 12:02:15;;;;;;;15.13;9.50;;;28.00;99.90;;;;;;4963382;28;20031;-59
2023/08/11 12:04:47;;;;;;;20.98;11.05;;;28.00;99.90;;;;;;4961752;28;20050;-62
2023/08/11 12:07:29;;;;;;;13.52;10.43;;;28.10;99.90;;;;;;4965071;28;20057;-59
2023/08/11 12:09:55;;;;;;;15.57;8.88;;;28.00;99.90;;;;;;4965406;28;20039;-59
2023/08/11 12:12:24;;;;;;;12.73;9.40;;;28.00;99.90;;;;;;4965659;28;20402;-59
2023/08/11 12:14:50;;;;;;;17.85;9.82;;;27.90;99.90;;;;;;4964634;28;20816;-58
2023/08/11 12:17:16;;;;;;;19.17;10.48;;;27.90;99.90;;;;;;4965945;28;20057;-58
2023/08/11 12:19:43;;;;;;;15.18;11.25;;;27.80;99.90;;;;;;4966671;28;20121;-59
2023/08/11 12:22:09;;;;;;;12.93;10.40;;;27.80;99.90;;;;;;4964101;28;20043;-59
2023/08/11 12:24:34;;;;;;;16.63;10.93;;;27.60;99.90;;;;;;4966436;28;20043;-60
2023/08/11 12:27:00;;;;;;;21.33;10.60;;;27.70;99.90;;;;;;4964190;28;20105;-61
2023/08/11 12:29:26;;;;;;;14.73;9.82;;;27.60;99.90;;;;;;4959982;28;20390;-60